Terminal Aerodrome Forecast
Issued by NWS

Home | Current Version | Previous Version | Text Only | Print | Product List | Glossary On
Versions: 1 2 3 4 5 6 7 8 9 10 11 12 13 14 15
000
FTUS42 KTAE 020529
TAFDHN
TAF
KDHN 020529Z 0206/0306 00000KT P6SM SCT040
     FM021000 VRB03KT 5SM BR BKN010
     FM021500 20009KT P6SM SCT025 BKN050
     FM021800 21010KT P6SM VCTS BKN050CB OVC100
      TEMPO 0220/0224 P6SM -TSRA BKN035CB
     FM030100 24006KT P6SM SCT050 BKN100=

USA.gov is the U.S. government's official web portal to all federal, state and local government web resources and services.